Lester, Pennsylvania
Current Conditions -  °F | °C
As of 4:54 AM on Saturday 25 Oct 2014 (Local Time) from KPHL Reporting Station
Clear Clear  
Wind Chill:   Ceiling: Unl
Heat Index:   Visibility: 10mi
Dew Point:   Wind: 3mph
Humidity: 63%   Direction: 250°WSW
Pressure: 29.92"   Gusts: NA
Location:  39.867°N, 75.284°W
Report Text: KPHL 250854Z 25003KT 10SM CLR 09/02 A2992 RMK AO2 SLP130 T00890022 53007
Loading
Personal Weather Stations






























Interactive Weather Map
Tropical Storm Tracking
New forecast layout! Learn more

10-Day Weather Forecast

Advertisements
Track Severe Weather on mobile